Time;durP1;ratioP1;P1;durP2;ratioP2;P2;SDS_P1;SDS_P2;PMS_P1;PMS_P2;Temp;Humidity;BMP_temperature;BMP_pressure;BME280_temperature;BME280_humidity;BME280_pressure;Samples;Min_cycle;Max_cycle;Signal;HPM_P1;HPM_P2
2023/04/09 00:01:03;;;;;;;58.65;35.47;;;10.10;99.90;;;;;;5052007;28;20041;-64
2023/04/09 00:03:29;;;;;;;50.15;33.58;;;10.10;99.90;;;;;;5057191;28;20350;-63
2023/04/09 00:05:55;;;;;;;54.58;34.58;;;10.10;99.90;;;;;;5053552;28;20099;-63
2023/04/09 00:08:22;;;;;;;53.53;34.22;;;10.10;99.90;;;;;;5058702;28;20474;-63
2023/04/09 00:10:48;;;;;;;51.50;33.45;;;10.10;99.90;;;;;;5061179;28;20041;-62
2023/04/09 00:13:14;;;;;;;51.05;33.05;;;10.10;99.90;;;;;;5063592;28;20048;-63
2023/04/09 00:15:40;;;;;;;57.03;34.72;;;10.10;99.90;;;;;;5056266;28;20041;-63
2023/04/09 00:18:06;;;;;;;50.95;33.33;;;10.00;99.90;;;;;;5060539;28;20389;-63
2023/04/09 00:20:32;;;;;;;50.45;32.75;;;10.00;99.90;;;;;;5054165;28;20044;-63
2023/04/09 00:22:58;;;;;;;51.47;33.35;;;10.00;99.90;;;;;;5058386;28;20151;-62
2023/04/09 00:25:24;;;;;;;52.90;34.47;;;10.00;99.90;;;;;;5067180;28;20458;-62
2023/04/09 00:27:49;;;;;;;52.08;34.38;;;10.00;99.90;;;;;;5057960;28;20360;-63
2023/04/09 00:30:15;;;;;;;52.25;33.00;;;10.00;99.90;;;;;;5058578;28;20069;-63
2023/04/09 00:32:41;;;;;;;53.15;34.20;;;10.00;99.90;;;;;;5063875;28;20037;-63
2023/04/09 00:35:07;;;;;;;53.45;33.35;;;10.00;99.90;;;;;;5065204;28;20063;-63
2023/04/09 00:37:32;;;;;;;51.90;33.47;;;10.00;99.90;;;;;;5057144;28;20505;-62
2023/04/09 00:39:58;;;;;;;52.92;33.22;;;10.00;99.90;;;;;;5059597;28;20040;-62
2023/04/09 00:42:24;;;;;;;50.13;33.30;;;9.90;99.90;;;;;;5055260;28;20094;-62
2023/04/09 00:44:50;;;;;;;51.25;33.67;;;9.90;99.90;;;;;;5054920;28;20048;-62
2023/04/09 00:47:16;;;;;;;50.00;32.13;;;9.90;99.90;;;;;;5057994;28;20322;-63
2023/04/09 00:49:43;;;;;;;50.30;31.40;;;9.90;99.90;;;;;;5066773;28;20090;-62
2023/04/09 00:52:09;;;;;;;50.70;31.83;;;9.90;99.90;;;;;;5055696;28;20500;-63
2023/04/09 00:54:35;;;;;;;50.53;32.35;;;9.90;99.90;;;;;;5068458;28;20051;-62
2023/04/09 00:57:00;;;;;;;47.33;30.55;;;9.90;99.90;;;;;;5063090;28;20048;-62
2023/04/09 00:59:27;;;;;;;50.38;31.92;;;9.90;99.90;;;;;;5063640;28;20064;-63
2023/04/09 01:01:52;;;;;;;46.75;30.63;;;9.80;99.90;;;;;;5060736;28;20036;-62
2023/04/09 01:04:19;;;;;;;46.85;29.60;;;9.90;99.90;;;;;;5067182;28;20443;-62
2023/04/09 01:06:52;;;;;;;46.67;29.60;;;9.80;99.90;;;;;;5068119;28;20052;-62
2023/04/09 01:09:27;;;;;;;44.85;29.17;;;9.90;99.90;;;;;;5070724;28;20378;-62
2023/04/09 01:12:08;;;;;;;47.80;30.05;;;9.80;99.90;;;;;;5063318;28;20048;-63
2023/04/09 01:14:54;;;;;;;44.80;27.52;;;9.80;99.90;;;;;;5061790;28;20054;-62
2023/04/09 01:17:30;;;;;;;42.53;27.40;;;9.90;99.90;;;;;;5055352;28;20044;-62
2023/04/09 01:20:09;;;;;;;43.20;27.10;;;9.90;99.90;;;;;;5056564;28;20183;-63
2023/04/09 01:22:49;;;;;;;40.95;26.70;;;9.80;99.90;;;;;;5058444;28;20071;-63
2023/04/09 01:25:40;;;;;;;40.85;26.92;;;9.80;99.90;;;;;;5059456;28;20480;-62
2023/04/09 01:28:26;;;;;;;42.85;26.95;;;9.80;99.90;;;;;;5055259;28;20047;-63
2023/04/09 01:31:06;;;;;;;42.20;26.77;;;9.80;99.90;;;;;;5051045;28;20049;-62
2023/04/09 01:33:33;;;;;;;44.65;28.10;;;9.80;99.90;;;;;;5057153;28;20105;-63
2023/04/09 01:35:59;;;;;;;44.28;28.50;;;9.80;99.90;;;;;;5052192;28;20052;-62
2023/04/09 01:38:26;;;;;;;47.33;28.98;;;9.70;99.90;;;;;;5055792;28;20045;-63
2023/04/09 01:40:54;;;;;;;47.42;29.10;;;9.80;99.90;;;;;;5055906;28;20033;-62
2023/04/09 01:43:21;;;;;;;42.00;27.67;;;9.80;99.90;;;;;;5057156;28;20898;-63
2023/04/09 01:45:47;;;;;;;44.80;28.65;;;9.70;99.90;;;;;;5052179;28;20426;-63
2023/04/09 01:48:14;;;;;;;46.33;28.58;;;9.70;99.90;;;;;;5057430;28;20045;-62
2023/04/09 01:50:40;;;;;;;47.80;29.98;;;9.70;99.90;;;;;;5052086;28;20448;-62
2023/04/09 01:53:06;;;;;;;44.70;28.45;;;9.70;99.90;;;;;;5057014;28;20563;-62
2023/04/09 01:55:32;;;;;;;50.85;29.58;;;9.70;99.90;;;;;;5055257;28;20045;-62
2023/04/09 01:57:57;;;;;;;48.00;28.80;;;9.70;99.90;;;;;;5058852;28;20128;-63
2023/04/09 02:00:29;;;;;;;48.92;30.85;;;9.70;99.90;;;;;;5058478;28;20049;-62
2023/04/09 02:03:06;;;;;;;50.55;31.63;;;9.70;99.90;;;;;;5055022;28;20041;-62
2023/04/09 02:05:37;;;;;;;52.80;32.97;;;9.70;99.90;;;;;;5057782;28;20127;-62
2023/04/09 02:08:05;;;;;;;56.90;32.83;;;9.70;99.90;;;;;;5058392;28;20582;-62
2023/04/09 02:10:34;;;;;;;55.70;31.92;;;9.70;99.90;;;;;;5067934;28;20048;-63
2023/04/09 02:13:03;;;;;;;52.45;32.03;;;9.60;99.90;;;;;;5064214;28;20041;-62
2023/04/09 02:15:30;;;;;;;52.72;31.23;;;9.60;99.90;;;;;;5058382;28;20234;-62
2023/04/09 02:17:56;;;;;;;49.60;30.45;;;9.60;99.90;;;;;;5060790;28;20085;-62
2023/04/09 02:20:21;;;;;;;51.35;31.13;;;9.60;99.90;;;;;;5066105;28;20041;-62
2023/04/09 02:22:47;;;;;;;49.00;30.17;;;9.60;99.90;;;;;;5059919;28;20167;-62
2023/04/09 02:25:13;;;;;;;49.60;29.88;;;9.60;99.90;;;;;;5058978;28;20056;-63
2023/04/09 02:27:39;;;;;;;50.42;28.83;;;9.60;99.90;;;;;;5059830;28;20052;-63
2023/04/09 02:30:05;;;;;;;44.28;27.88;;;9.60;99.90;;;;;;5059880;28;20045;-63
2023/04/09 02:32:30;;;;;;;43.30;27.30;;;9.60;99.90;;;;;;5056797;28;20110;-63
2023/04/09 02:34:56;;;;;;;38.63;25.67;;;9.60;99.90;;;;;;5066386;28;20044;-63
2023/04/09 02:37:22;;;;;;;40.65;24.90;;;9.60;99.90;;;;;;5058682;28;20041;-62
2023/04/09 02:39:47;;;;;;;43.85;26.65;;;9.60;99.90;;;;;;5064355;28;20033;-62
2023/04/09 02:42:13;;;;;;;42.38;26.73;;;9.60;99.90;;;;;;5068983;28;20166;-62
2023/04/09 02:44:38;;;;;;;38.83;24.60;;;9.50;99.90;;;;;;5055512;28;20459;-63
2023/04/09 02:47:04;;;;;;;41.30;25.05;;;9.50;99.90;;;;;;5057584;28;20160;-62
2023/04/09 02:49:29;;;;;;;40.38;25.85;;;9.50;99.90;;;;;;5067811;28;20041;-62
2023/04/09 02:51:55;;;;;;;39.55;24.88;;;9.50;99.90;;;;;;5055643;28;20049;-63
2023/04/09 02:54:21;;;;;;;42.92;25.80;;;9.50;99.90;;;;;;5067107;28;20094;-63
2023/04/09 02:56:46;;;;;;;37.63;24.08;;;9.40;99.90;;;;;;5069983;28;20572;-63
2023/04/09 02:59:12;;;;;;;37.88;24.73;;;9.40;99.90;;;;;;5058317;28;20064;-62
2023/04/09 03:01:37;;;;;;;38.10;24.08;;;9.40;99.90;;;;;;5061191;28;20443;-62
2023/04/09 03:04:03;;;;;;;38.90;24.13;;;9.40;99.90;;;;;;5071192;28;20499;-62
2023/04/09 03:06:28;;;;;;;42.17;25.70;;;9.50;99.90;;;;;;5061969;28;20060;-63
2023/04/09 03:08:54;;;;;;;37.28;23.77;;;9.40;99.90;;;;;;5072743;28;20048;-63
2023/04/09 03:11:19;;;;;;;38.15;24.65;;;9.50;99.90;;;;;;5072730;28;20041;-62
2023/04/09 03:13:45;;;;;;;38.03;23.80;;;9.40;99.90;;;;;;5065709;28;20029;-62
2023/04/09 03:16:11;;;;;;;37.63;24.40;;;9.50;99.90;;;;;;5067302;28;20047;-62
2023/04/09 03:18:36;;;;;;;41.28;24.48;;;9.40;99.90;;;;;;5059620;28;20040;-63
2023/04/09 03:21:06;;;;;;;37.83;23.63;;;9.40;99.90;;;;;;5056708;28;20166;-62
2023/04/09 03:23:33;;;;;;;38.45;24.38;;;9.40;99.90;;;;;;5054114;28;20121;-62
2023/04/09 03:26:03;;;;;;;38.45;23.65;;;9.40;99.90;;;;;;5052412;28;20059;-63
2023/04/09 03:28:30;;;;;;;38.35;23.40;;;9.40;99.90;;;;;;5053874;28;20128;-63
2023/04/09 03:30:55;;;;;;;36.22;23.70;;;9.40;99.90;;;;;;5056820;28;20130;-62
2023/04/09 03:33:21;;;;;;;38.65;24.20;;;9.30;99.90;;;;;;5053513;28;20037;-62
2023/04/09 03:35:46;;;;;;;40.42;23.42;;;9.30;99.90;;;;;;5055226;28;20429;-63
2023/04/09 03:38:12;;;;;;;39.65;25.17;;;9.30;99.90;;;;;;5054834;28;20098;-63
2023/04/09 03:40:38;;;;;;;42.15;24.80;;;9.30;99.90;;;;;;5060431;28;20124;-62
2023/04/09 03:43:03;;;;;;;40.15;25.40;;;9.20;99.90;;;;;;5054789;28;20482;-63
2023/04/09 03:45:29;;;;;;;43.05;25.30;;;9.20;99.90;;;;;;5053708;28;20073;-63
2023/04/09 03:47:54;;;;;;;42.15;24.77;;;9.30;99.90;;;;;;5057507;28;20049;-63
2023/04/09 03:50:20;;;;;;;43.55;26.00;;;9.20;99.90;;;;;;5055286;28;20399;-63
2023/04/09 03:52:46;;;;;;;41.92;24.77;;;9.30;99.90;;;;;;5057226;28;20075;-63
2023/04/09 03:55:11;;;;;;;42.83;25.58;;;9.30;99.90;;;;;;5055805;28;20956;-62
2023/04/09 03:57:37;;;;;;;40.65;25.83;;;9.30;99.90;;;;;;5052640;28;20049;-63
2023/04/09 04:00:03;;;;;;;43.53;25.95;;;9.30;99.90;;;;;;5050717;28;20040;-63
2023/04/09 04:02:32;;;;;;;43.17;26.17;;;9.30;99.90;;;;;;5048819;28;20069;-62
2023/04/09 04:05:01;;;;;;;46.60;27.00;;;9.30;99.90;;;;;;5050910;28;20067;-63
2023/04/09 04:07:26;;;;;;;44.65;26.95;;;9.30;99.90;;;;;;5050751;28;20075;-63
2023/04/09 04:09:52;;;;;;;42.90;26.35;;;9.30;99.90;;;;;;5051619;28;20139;-63
2023/04/09 04:12:18;;;;;;;40.95;24.35;;;9.30;99.90;;;;;;5051853;28;20131;-63
2023/04/09 04:14:43;;;;;;;45.33;26.55;;;9.30;99.90;;;;;;5050093;28;20394;-63
2023/04/09 04:17:10;;;;;;;43.70;26.75;;;9.30;99.90;;;;;;5054191;28;20037;-64
2023/04/09 04:19:36;;;;;;;46.00;27.13;;;9.30;99.90;;;;;;5053629;28;20113;-62
2023/04/09 04:22:01;;;;;;;42.17;26.25;;;9.30;99.90;;;;;;5055409;28;20056;-63
2023/04/09 04:24:27;;;;;;;45.20;26.50;;;9.30;99.90;;;;;;5054664;28;20045;-63
2023/04/09 04:26:52;;;;;;;43.65;26.67;;;9.30;99.90;;;;;;5050229;28;20120;-64
2023/04/09 04:29:18;;;;;;;48.50;27.38;;;9.30;99.90;;;;;;5058045;28;20041;-63
2023/04/09 04:31:43;;;;;;;45.30;26.85;;;9.30;99.90;;;;;;5063856;28;20410;-62
2023/04/09 04:34:09;;;;;;;44.95;27.15;;;9.30;99.90;;;;;;5068585;28;20042;-62
2023/04/09 04:36:36;;;;;;;44.10;27.63;;;9.30;99.90;;;;;;5060334;28;20059;-62
2023/04/09 04:39:01;;;;;;;46.95;27.63;;;9.30;99.90;;;;;;5063230;28;20118;-62
2023/04/09 04:41:28;;;;;;;43.25;26.27;;;9.30;99.90;;;;;;5065084;28;20036;-62
2023/04/09 04:43:53;;;;;;;42.75;26.05;;;9.30;99.90;;;;;;5066484;28;20070;-62
2023/04/09 04:46:19;;;;;;;46.70;27.42;;;9.30;99.90;;;;;;5057683;28;20048;-63
2023/04/09 04:48:45;;;;;;;45.33;26.80;;;9.30;99.90;;;;;;5056272;28;20078;-62
2023/04/09 04:51:10;;;;;;;45.20;26.73;;;9.30;99.90;;;;;;5055879;28;20043;-62
2023/04/09 04:53:36;;;;;;;47.17;27.38;;;9.30;99.90;;;;;;5065010;28;20127;-62
2023/04/09 04:56:01;;;;;;;44.58;27.67;;;9.20;99.90;;;;;;5061053;28;20053;-62
2023/04/09 04:58:28;;;;;;;45.47;27.98;;;9.20;99.90;;;;;;5066463;28;20128;-62
2023/04/09 05:00:53;;;;;;;42.97;26.85;;;9.20;99.90;;;;;;5066092;28;20506;-62
2023/04/09 05:03:19;;;;;;;43.63;26.30;;;9.20;99.90;;;;;;5060567;28;20044;-62
2023/04/09 05:05:45;;;;;;;47.17;26.55;;;9.20;99.90;;;;;;5065273;28;20085;-62
2023/04/09 05:08:10;;;;;;;43.90;27.17;;;9.20;99.90;;;;;;5065890;28;20040;-62
2023/04/09 05:10:39;;;;;;;48.15;27.55;;;9.20;99.90;;;;;;5068077;28;20178;-62
2023/04/09 05:13:04;;;;;;;43.53;26.60;;;9.20;99.90;;;;;;5066156;28;20085;-62
2023/04/09 05:15:30;;;;;;;44.10;25.80;;;9.20;99.90;;;;;;5055015;28;20130;-62
2023/04/09 05:17:56;;;;;;;42.20;25.40;;;9.20;99.90;;;;;;5062210;28;20052;-62
2023/04/09 05:20:22;;;;;;;45.63;26.38;;;9.20;99.90;;;;;;5056693;28;20519;-62
2023/04/09 05:22:48;;;;;;;42.00;25.52;;;9.20;99.90;;;;;;5053444;28;20060;-62
2023/04/09 05:25:14;;;;;;;43.00;26.83;;;9.20;99.90;;;;;;5052874;28;20186;-62
2023/04/09 05:27:40;;;;;;;44.50;27.33;;;9.20;99.90;;;;;;5049685;28;20100;-62
2023/04/09 05:30:06;;;;;;;43.92;27.85;;;9.20;99.90;;;;;;5052096;28;20113;-63
2023/04/09 05:32:32;;;;;;;42.55;26.55;;;9.20;99.90;;;;;;5053554;28;20464;-63
2023/04/09 05:34:57;;;;;;;43.47;26.50;;;9.20;99.90;;;;;;5049597;28;20060;-63
2023/04/09 05:37:23;;;;;;;44.72;26.40;;;9.20;99.90;;;;;;5053336;28;20057;-62
2023/04/09 05:39:49;;;;;;;41.50;26.60;;;9.20;99.90;;;;;;5054610;28;20435;-62
2023/04/09 05:42:14;;;;;;;40.13;25.08;;;9.20;99.90;;;;;;5054951;28;20049;-62
2023/04/09 05:44:40;;;;;;;37.55;23.85;;;9.20;99.90;;;;;;5052512;28;20032;-62
2023/04/09 05:47:06;;;;;;;35.10;23.02;;;9.30;99.90;;;;;;5058749;28;20094;-63
2023/04/09 05:49:31;;;;;;;39.88;24.13;;;9.30;99.90;;;;;;5056554;28;20057;-62
2023/04/09 05:51:57;;;;;;;36.58;23.05;;;9.30;99.90;;;;;;5055686;28;20060;-63
2023/04/09 05:54:22;;;;;;;37.85;22.70;;;9.30;99.90;;;;;;5057381;28;20086;-62
2023/04/09 05:56:48;;;;;;;36.13;23.58;;;9.30;99.90;;;;;;5059902;28;20129;-62
2023/04/09 05:59:13;;;;;;;34.88;22.77;;;9.30;99.90;;;;;;5072391;28;20040;-61
2023/04/09 06:01:39;;;;;;;34.00;22.60;;;9.30;99.90;;;;;;5062675;28;20408;-61
2023/04/09 06:04:05;;;;;;;36.33;23.63;;;9.40;99.90;;;;;;5059343;28;20078;-62
2023/04/09 06:06:30;;;;;;;40.88;24.65;;;9.40;99.90;;;;;;5062661;28;20436;-62
2023/04/09 06:08:56;;;;;;;41.15;25.65;;;9.40;99.90;;;;;;5070517;28;20068;-61
2023/04/09 06:11:21;;;;;;;37.03;24.27;;;9.40;99.90;;;;;;5065337;28;20048;-62
2023/04/09 06:13:47;;;;;;;40.85;24.95;;;9.40;99.90;;;;;;5057826;28;20037;-62
2023/04/09 06:16:13;;;;;;;40.63;25.20;;;9.40;99.90;;;;;;5069008;28;20504;-62
2023/04/09 06:18:38;;;;;;;43.10;25.73;;;9.40;99.90;;;;;;5062939;28;20518;-63
2023/04/09 06:21:05;;;;;;;41.38;24.35;;;9.40;99.90;;;;;;5066727;28;20135;-62
2023/04/09 06:23:33;;;;;;;36.88;24.30;;;9.50;99.90;;;;;;5056624;28;20114;-62
2023/04/09 06:25:59;;;;;;;35.22;22.88;;;9.50;99.90;;;;;;5054759;28;20152;-63
2023/04/09 06:28:25;;;;;;;33.67;22.38;;;9.50;99.90;;;;;;5059639;28;20110;-63
2023/04/09 06:30:54;;;;;;;35.80;23.30;;;9.60;99.90;;;;;;5042483;28;20053;-62
2023/04/09 06:33:20;;;;;;;33.92;22.17;;;9.60;99.90;;;;;;5059797;28;20416;-62
2023/04/09 06:35:46;;;;;;;36.05;23.60;;;9.60;99.90;;;;;;5066178;28;20052;-62
2023/04/09 06:38:12;;;;;;;33.55;22.33;;;9.70;99.90;;;;;;5055150;28;20060;-62
2023/04/09 06:40:38;;;;;;;34.25;21.92;;;9.70;99.90;;;;;;5060118;28;20092;-62
2023/04/09 06:43:04;;;;;;;35.97;22.35;;;9.70;99.90;;;;;;5060226;28;20055;-63
2023/04/09 06:45:31;;;;;;;34.25;23.02;;;9.80;99.90;;;;;;5059355;28;20535;-67
2023/04/09 06:47:57;;;;;;;33.95;22.30;;;9.80;99.90;;;;;;5069799;28;20071;-63
2023/04/09 06:50:22;;;;;;;32.90;22.23;;;9.80;99.90;;;;;;5064620;28;20044;-64
2023/04/09 06:52:48;;;;;;;31.25;21.63;;;9.90;99.90;;;;;;5063710;28;20049;-63
2023/04/09 06:55:14;;;;;;;33.67;21.63;;;9.90;99.90;;;;;;5076050;28;20051;-63
2023/04/09 06:57:40;;;;;;;33.10;22.17;;;9.90;99.90;;;;;;5067503;28;20041;-65
2023/04/09 07:00:07;;;;;;;33.65;22.25;;;10.00;99.90;;;;;;5064882;28;20037;-64
2023/04/09 07:02:33;;;;;;;34.53;22.33;;;10.00;99.90;;;;;;5067285;28;20074;-62
2023/04/09 07:04:58;;;;;;;34.53;22.10;;;10.10;99.90;;;;;;5058804;28;20049;-61
2023/04/09 07:07:24;;;;;;;34.88;22.98;;;10.00;99.90;;;;;;5054514;28;20045;-62
2023/04/09 07:09:51;;;;;;;34.30;21.33;;;10.00;99.90;;;;;;5057041;28;20109;-62
2023/04/09 07:12:26;;;;;;;33.78;21.83;;;10.10;99.90;;;;;;5065043;28;20079;-61
2023/04/09 07:14:52;;;;;;;34.83;21.77;;;10.10;99.90;;;;;;5066239;28;20151;-62
2023/04/09 07:17:18;;;;;;;31.30;21.08;;;10.20;99.90;;;;;;5059990;28;20136;-63
2023/04/09 07:19:44;;;;;;;30.00;21.00;;;10.10;99.90;;;;;;5065362;28;20069;-63
2023/04/09 07:22:09;;;;;;;31.08;20.33;;;10.20;99.90;;;;;;5069046;28;20059;-64
2023/04/09 07:24:35;;;;;;;31.60;20.33;;;10.20;99.90;;;;;;5060061;28;20044;-62
2023/04/09 07:27:04;;;;;;;31.88;20.85;;;10.30;99.90;;;;;;5067338;28;20386;-62
2023/04/09 07:29:30;;;;;;;29.90;20.27;;;10.40;99.90;;;;;;5066109;28;20041;-63
2023/04/09 07:31:55;;;;;;;32.55;20.92;;;10.40;99.90;;;;;;5065655;28;20052;-63
2023/04/09 07:34:21;;;;;;;30.42;21.88;;;10.50;99.90;;;;;;5057510;28;20047;-62
2023/04/09 07:36:49;;;;;;;30.98;21.67;;;10.50;99.90;;;;;;5056128;28;20047;-63
2023/04/09 07:39:16;;;;;;;34.20;20.42;;;10.60;99.90;;;;;;5063240;28;20036;-64
2023/04/09 07:41:41;;;;;;;30.33;20.67;;;10.60;99.90;;;;;;5063188;28;20056;-62
2023/04/09 07:44:08;;;;;;;31.95;21.52;;;10.60;99.90;;;;;;5064579;28;20041;-62
2023/04/09 07:46:33;;;;;;;32.80;20.63;;;10.60;99.90;;;;;;5058905;28;20115;-62
2023/04/09 07:48:59;;;;;;;31.33;21.25;;;10.60;99.90;;;;;;5059570;28;20394;-62
2023/04/09 07:51:25;;;;;;;29.77;20.65;;;10.70;99.90;;;;;;5070764;28;20055;-62
2023/04/09 07:53:50;;;;;;;29.45;20.33;;;10.70;99.90;;;;;;5055861;28;20049;-62
2023/04/09 07:56:16;;;;;;;34.85;21.83;;;10.70;99.90;;;;;;5058473;28;20145;-63
2023/04/09 07:58:41;;;;;;;35.30;22.52;;;10.80;99.90;;;;;;5059263;28;20041;-63
2023/04/09 08:01:07;;;;;;;29.65;20.42;;;10.80;99.90;;;;;;5058427;28;20052;-63
2023/04/09 08:03:35;;;;;;;33.25;20.58;;;10.90;99.90;;;;;;5061980;28;20542;-62
2023/04/09 08:06:00;;;;;;;30.63;20.65;;;10.90;99.90;;;;;;5059351;28;20436;-62
2023/04/09 08:08:26;;;;;;;28.65;19.95;;;11.00;99.90;;;;;;5060572;28;20072;-62
2023/04/09 08:10:52;;;;;;;30.55;21.08;;;11.00;99.90;;;;;;5068290;28;20376;-62
2023/04/09 08:13:18;;;;;;;28.67;19.48;;;11.10;99.90;;;;;;5065272;28;20117;-63
2023/04/09 08:15:43;;;;;;;31.52;20.25;;;11.20;99.90;;;;;;5069018;28;20040;-62
2023/04/09 08:18:09;;;;;;;30.35;20.27;;;11.30;99.90;;;;;;5070054;28;20039;-62
2023/04/09 08:20:43;;;;;;;31.77;20.95;;;11.30;99.90;;;;;;5070343;28;20047;-62
2023/04/09 08:23:09;;;;;;;29.02;20.95;;;11.40;99.90;;;;;;5069114;28;20052;-63
2023/04/09 08:25:35;;;;;;;30.98;20.05;;;11.40;99.90;;;;;;5068395;28;20676;-63
2023/04/09 08:28:01;;;;;;;33.90;22.08;;;11.50;99.90;;;;;;5063315;28;20037;-61
2023/04/09 08:30:27;;;;;;;29.35;19.58;;;11.50;99.90;;;;;;5063893;28;20462;-63
2023/04/09 08:32:52;;;;;;;28.58;19.90;;;11.60;99.90;;;;;;5062654;28;20117;-63
2023/04/09 08:35:18;;;;;;;29.65;20.08;;;11.70;99.90;;;;;;5060529;28;20039;-61
2023/04/09 08:37:44;;;;;;;28.95;20.02;;;11.70;99.90;;;;;;5061648;28;20049;-61
2023/04/09 08:40:10;;;;;;;31.65;21.15;;;11.80;99.90;;;;;;5064353;28;20075;-62
2023/04/09 08:42:44;;;;;;;29.42;20.40;;;12.00;99.90;;;;;;5063448;28;20040;-61
2023/04/09 08:45:11;;;;;;;29.60;21.33;;;12.20;99.90;;;;;;5054714;28;20059;-63
2023/04/09 08:47:39;;;;;;;31.27;20.67;;;12.20;99.90;;;;;;5063541;28;20045;-64
2023/04/09 08:50:05;;;;;;;31.60;22.23;;;12.30;99.90;;;;;;5062094;28;20131;-64
2023/04/09 08:52:32;;;;;;;30.00;20.08;;;12.50;99.90;;;;;;5066265;28;20154;-63
2023/04/09 08:54:58;;;;;;;30.85;20.95;;;12.60;99.90;;;;;;5062588;28;20056;-63
2023/04/09 08:57:23;;;;;;;30.08;20.52;;;12.50;99.90;;;;;;5063471;28;20052;-64
2023/04/09 08:59:49;;;;;;;31.45;21.42;;;12.60;99.90;;;;;;5067576;28;20041;-64
2023/04/09 09:02:14;;;;;;;34.35;21.90;;;12.90;99.90;;;;;;5064317;28;20399;-62
2023/04/09 09:04:45;;;;;;;31.88;21.02;;;13.00;99.90;;;;;;5060363;28;20051;-62
2023/04/09 09:07:11;;;;;;;29.45;20.88;;;13.10;99.90;;;;;;5059138;28;20048;-62
2023/04/09 09:09:56;;;;;;;28.08;20.05;;;13.30;99.90;;;;;;5059915;28;20055;-63
2023/04/09 09:12:31;;;;;;;;;;;13.40;99.90;;;;;;5060712;28;20415;-62
2023/04/09 09:14:57;;;;;;;32.08;22.23;;;13.50;99.90;;;;;;5060860;28;20323;-62
2023/04/09 09:17:22;;;;;;;32.13;22.90;;;13.50;99.90;;;;;;5068681;28;20064;-63
2023/04/09 09:19:48;;;;;;;31.23;21.75;;;13.40;99.90;;;;;;5066993;28;20497;-63
2023/04/09 09:22:14;;;;;;;32.00;21.40;;;13.30;99.90;;;;;;5062406;28;20120;-63
2023/04/09 09:24:50;;;;;;;30.30;22.08;;;13.50;99.90;;;;;;5065227;28;20156;-63
2023/04/09 09:27:35;;;;;;;31.02;21.95;;;13.50;99.90;;;;;;5060363;28;20100;-63
2023/04/09 09:30:05;;;;;;;29.73;21.05;;;13.50;99.90;;;;;;5063374;28;20044;-63
2023/04/09 09:32:32;;;;;;;30.15;20.52;;;13.60;99.90;;;;;;5066717;28;20462;-63
2023/04/09 09:35:02;;;;;;;29.63;20.80;;;13.50;99.90;;;;;;5064593;28;20040;-63
2023/04/09 09:37:28;;;;;;;30.08;21.10;;;13.60;99.90;;;;;;5063904;28;20037;-63
2023/04/09 09:39:54;;;;;;;29.27;20.73;;;13.60;99.90;;;;;;5056443;28;20041;-63
2023/04/09 09:42:20;;;;;;;29.17;19.92;;;13.60;99.90;;;;;;5063690;28;20122;-63
2023/04/09 09:44:46;;;;;;;28.02;19.30;;;13.70;99.90;;;;;;5064331;28;20394;-63
2023/04/09 09:47:13;;;;;;;28.50;19.02;;;13.90;99.90;;;;;;5059147;28;20036;-62
2023/04/09 09:49:40;;;;;;;26.33;18.10;;;14.10;99.90;;;;;;5062017;28;20127;-63
2023/04/09 09:52:09;;;;;;;29.85;20.23;;;14.30;99.90;;;;;;5065963;28;20053;-63
2023/04/09 09:54:46;;;;;;;28.52;19.52;;;14.30;99.90;;;;;;5062902;28;20040;-62
2023/04/09 09:57:13;;;;;;;26.90;19.17;;;14.30;99.90;;;;;;5066725;28;20397;-63
2023/04/09 10:00:04;;;;;;;28.38;19.50;;;14.20;99.90;;;;;;5066040;28;20095;-61
2023/04/09 10:02:39;;;;;;;27.13;19.60;;;14.20;99.90;;;;;;5060080;28;20048;-62
2023/04/09 10:05:07;;;;;;;25.10;18.40;;;14.20;99.90;;;;;;5054378;28;20055;-64
2023/04/09 10:07:33;;;;;;;33.33;20.30;;;14.40;99.90;;;;;;5057511;28;20044;-65
2023/04/09 10:10:01;;;;;;;28.40;19.33;;;14.40;99.90;;;;;;5054721;28;20500;-64
2023/04/09 10:12:27;;;;;;;26.30;18.55;;;14.50;99.90;;;;;;5057719;28;20036;-64
2023/04/09 10:14:59;;;;;;;26.98;17.63;;;14.50;99.90;;;;;;5055558;28;20935;-64
2023/04/09 10:17:25;;;;;;;25.50;18.25;;;14.70;99.90;;;;;;5059420;28;20052;-64
2023/04/09 10:20:11;;;;;;;29.67;19.70;;;14.80;99.90;;;;;;5062270;28;20332;-64
2023/04/09 10:22:38;;;;;;;28.75;19.40;;;14.90;99.90;;;;;;5062505;28;20463;-64
2023/04/09 10:25:05;;;;;;;25.13;18.23;;;14.90;99.90;;;;;;5061583;28;20421;-64
2023/04/09 10:27:31;;;;;;;26.63;18.10;;;14.90;99.90;;;;;;5059342;28;20068;-64
2023/04/09 10:29:58;;;;;;;26.00;18.00;;;15.00;99.90;;;;;;5064985;28;20076;-64
2023/04/09 10:32:26;;;;;;;24.02;16.23;;;15.00;99.90;;;;;;5051015;28;20045;-64
2023/04/09 10:34:56;;;;;;;23.58;16.42;;;15.10;99.90;;;;;;5059978;28;20044;-64
2023/04/09 10:37:27;;;;;;;24.65;16.25;;;15.20;99.90;;;;;;5067364;28;20278;-64
2023/04/09 10:39:53;;;;;;;23.05;16.13;;;15.30;99.90;;;;;;5059705;28;20060;-64
2023/04/09 10:42:39;;;;;;;25.05;16.83;;;15.30;99.90;;;;;;5067200;28;20048;-64
2023/04/09 10:45:07;;;;;;;21.88;15.85;;;15.50;99.90;;;;;;5065202;28;20036;-64
2023/04/09 10:47:35;;;;;;;24.27;17.17;;;15.70;99.90;;;;;;5062744;28;20503;-64
2023/04/09 10:50:24;;;;;;;24.63;17.13;;;15.60;99.90;;;;;;5050376;28;20110;-64
2023/04/09 10:52:56;;;;;;;24.02;16.63;;;15.60;99.90;;;;;;5061057;28;20063;-64
2023/04/09 10:55:46;;;;;;;22.77;16.80;;;15.70;99.90;;;;;;5056600;28;20036;-64
2023/04/09 10:58:12;;;;;;;25.13;17.33;;;15.80;99.90;;;;;;5057565;28;20573;-64
2023/04/09 11:00:39;;;;;;;22.98;16.42;;;15.90;99.90;;;;;;5054930;28;20135;-64
2023/04/09 11:03:19;;;;;;;22.77;16.00;;;15.90;99.90;;;;;;5054692;28;20480;-64
2023/04/09 11:05:51;;;;;;;22.13;15.65;;;16.10;99.90;;;;;;5064040;28;20056;-63
2023/04/09 11:08:17;;;;;;;21.60;15.52;;;16.10;99.90;;;;;;5061168;28;20500;-64
2023/04/09 11:10:45;;;;;;;22.85;16.02;;;16.10;99.90;;;;;;5064932;28;20079;-65
2023/04/09 11:13:15;;;;;;;23.02;16.85;;;16.10;99.90;;;;;;5060630;28;20052;-64
2023/04/09 11:15:42;;;;;;;21.05;15.10;;;16.20;99.90;;;;;;5057797;28;20068;-63
2023/04/09 11:18:12;;;;;;;20.98;15.23;;;16.30;99.90;;;;;;5060560;28;20056;-65
2023/04/09 11:20:39;;;;;;;21.67;15.57;;;16.30;99.90;;;;;;5054212;28;20040;-64
2023/04/09 11:23:05;;;;;;;22.63;15.75;;;16.20;99.90;;;;;;5058851;28;20326;-63
2023/04/09 11:25:32;;;;;;;22.00;16.08;;;16.00;99.90;;;;;;5056166;28;20179;-63
2023/04/09 11:27:58;;;;;;;23.02;16.48;;;15.90;99.90;;;;;;5066926;28;20048;-64
2023/04/09 11:30:25;;;;;;;23.73;16.20;;;15.80;99.90;;;;;;5071293;28;20040;-64
2023/04/09 11:32:51;;;;;;;25.38;16.08;;;15.80;99.90;;;;;;5071912;28;20071;-63
2023/04/09 11:35:21;;;;;;;23.75;17.00;;;15.90;99.90;;;;;;5068161;28;20153;-63
2023/04/09 11:37:47;;;;;;;22.15;15.10;;;15.90;99.90;;;;;;5069887;28;20044;-64
2023/04/09 11:40:18;;;;;;;20.38;14.75;;;15.90;99.90;;;;;;5071650;28;20044;-63
2023/04/09 11:42:45;;;;;;;20.23;14.20;;;15.90;99.90;;;;;;5070571;28;20053;-64
2023/04/09 11:45:11;;;;;;;20.48;14.70;;;16.00;99.90;;;;;;5070739;28;20040;-64
2023/04/09 11:47:40;;;;;;;19.40;13.52;;;16.00;99.90;;;;;;5065751;28;20048;-64
2023/04/09 11:50:07;;;;;;;20.05;13.70;;;16.00;99.90;;;;;;5063749;28;20060;-64
2023/04/09 11:52:34;;;;;;;20.80;15.07;;;16.00;99.90;;;;;;5068310;28;20101;-64
2023/04/09 11:55:04;;;;;;;19.58;13.70;;;16.10;99.90;;;;;;5071747;28;20362;-64
2023/04/09 11:57:43;;;;;;;20.27;12.75;;;16.40;99.90;;;;;;5073264;28;20063;-64
2023/04/09 12:00:11;;;;;;;18.95;12.95;;;16.50;99.90;;;;;;5069429;28;20051;-64
2023/04/09 12:02:38;;;;;;;17.83;13.05;;;16.30;99.90;;;;;;5071015;28;20051;-64
2023/04/09 12:05:06;;;;;;;18.40;13.25;;;16.30;99.90;;;;;;5068666;28;20429;-64
2023/04/09 12:07:34;;;;;;;19.20;14.10;;;16.40;99.90;;;;;;5069574;28;20384;-63
2023/04/09 12:10:05;;;;;;;21.13;13.55;;;16.40;99.90;;;;;;5068279;28;20445;-64
2023/04/09 12:12:38;;;;;;;17.75;13.65;;;16.40;99.90;;;;;;5068001;28;20043;-64
2023/04/09 12:15:18;;;;;;;20.42;13.25;;;16.40;99.90;;;;;;5069833;28;20040;-64
2023/04/09 12:17:54;;;;;;;20.60;14.15;;;16.30;99.90;;;;;;5068853;28;20048;-64
2023/04/09 12:20:38;;;;;;;18.95;13.15;;;16.20;99.90;;;;;;5068319;28;20039;-63
2023/04/09 12:23:05;;;;;;;18.48;13.15;;;16.20;99.90;;;;;;5069786;28;20043;-64
2023/04/09 12:25:34;;;;;;;18.83;13.10;;;16.30;99.90;;;;;;5072245;28;20044;-64
2023/04/09 12:28:00;;;;;;;19.95;13.95;;;16.40;99.90;;;;;;5072567;28;20044;-63
2023/04/09 12:30:26;;;;;;;21.08;14.38;;;16.40;99.90;;;;;;5071143;28;20380;-64
2023/04/09 12:32:52;;;;;;;19.50;14.13;;;16.50;99.90;;;;;;5074054;28;20055;-63
2023/04/09 12:35:18;;;;;;;18.58;13.50;;;16.60;99.90;;;;;;5068093;28;20513;-64